createdAt,value
2018-09-27T00:00:13.371Z,10.78
2018-09-27T00:02:44.350Z,11.35
2018-09-27T00:05:15.904Z,10.68
2018-09-27T00:07:48.188Z,12.90
2018-09-27T00:10:20.876Z,12.28
2018-09-27T00:12:51.180Z,12.90
2018-09-27T00:15:25.003Z,8.70
2018-09-27T00:17:56.519Z,10.82
2018-09-27T00:20:26.483Z,10.88
2018-09-27T00:22:57.001Z,15.25
2018-09-27T00:25:27.822Z,9.58
2018-09-27T00:28:00.645Z,10.32
2018-09-27T00:30:35.017Z,10.80
2018-09-27T00:33:06.990Z,7.83
2018-09-27T00:35:38.751Z,12.95
2018-09-27T00:38:10.906Z,9.88
2018-09-27T00:40:40.936Z,10.08
2018-09-27T00:43:13.073Z,9.98
2018-09-27T00:45:43.814Z,10.80
2018-09-27T00:48:19.142Z,12.20
2018-09-27T00:50:49.350Z,9.35
2018-09-27T00:53:21.628Z,14.55
2018-09-27T00:55:52.195Z,15.15
2018-09-27T00:58:22.333Z,14.43
2018-09-27T01:00:53.049Z,12.43
2018-09-27T01:03:23.720Z,14.35
2018-09-27T01:05:55.036Z,13.28
2018-09-27T01:08:26.266Z,18.52
2018-09-27T01:10:57.110Z,12.50
2018-09-27T01:13:28.784Z,7.15
2018-09-27T01:16:01.998Z,10.13
2018-09-27T01:18:32.173Z,17.42
2018-09-27T01:21:02.221Z,14.50
2018-09-27T01:23:34.731Z,12.25
2018-09-27T01:26:04.797Z,15.90
2018-09-27T01:28:37.172Z,17.92
2018-09-27T01:31:10.071Z,16.42
2018-09-27T01:33:39.944Z,14.80
2018-09-27T01:36:10.819Z,18.07
2018-09-27T01:38:42.068Z,15.68
2018-09-27T01:41:16.265Z,16.15
2018-09-27T01:43:49.369Z,16.27
2018-09-27T01:46:19.682Z,16.77
2018-09-27T01:48:49.486Z,12.03
2018-09-27T01:51:19.419Z,13.93
2018-09-27T01:53:49.290Z,17.62
2018-09-27T01:56:20.185Z,19.62
2018-09-27T01:58:50.083Z,19.20
2018-09-27T02:01:19.990Z,8.90
2018-09-27T02:03:49.978Z,19.95
2018-09-27T02:06:21.766Z,24.67
2018-09-27T02:08:51.670Z,15.45
2018-09-27T02:11:21.736Z,18.60
2018-09-27T02:13:51.780Z,14.35
2018-09-27T02:16:21.461Z,8.68
2018-09-27T02:18:51.611Z,15.25
2018-09-27T02:21:21.685Z,16.02
2018-09-27T02:23:51.680Z,20.88
2018-09-27T02:26:21.559Z,20.40
2018-09-27T02:28:51.604Z,20.48
2018-09-27T02:31:23.052Z,12.93
2018-09-27T02:33:53.359Z,16.80
2018-09-27T02:36:23.320Z,18.50
2018-09-27T02:38:53.400Z,19.52
2018-09-27T02:41:23.437Z,22.37
2018-09-27T02:43:54.167Z,20.82
2018-09-27T02:46:25.140Z,21.12
2018-09-27T02:48:55.022Z,15.38
2018-09-27T02:51:25.014Z,16.15
2018-09-27T02:53:55.113Z,20.95
2018-09-27T02:56:25.133Z,22.42
2018-09-27T02:58:55.965Z,21.25
2018-09-27T03:01:27.076Z,22.30
2018-09-27T03:03:58.007Z,19.90
2018-09-27T03:06:29.299Z,22.25
2018-09-27T03:08:58.789Z,13.08
2018-09-27T03:11:29.740Z,18.23
2018-09-27T03:14:01.048Z,16.97
2018-09-27T03:16:30.984Z,13.80
2018-09-27T03:19:01.126Z,19.92
2018-09-27T03:21:31.652Z,16.02
2018-09-27T03:24:02.299Z,13.62
2018-09-27T03:26:32.298Z,20.77
2018-09-27T03:29:04.928Z,18.20
2018-09-27T03:31:37.238Z,23.30
2018-09-27T03:34:07.536Z,16.62
2018-09-27T03:36:37.477Z,23.40
2018-09-27T03:39:11.881Z,17.42
2018-09-27T03:41:42.958Z,18.17
2018-09-27T03:44:12.945Z,19.90
2018-09-27T03:46:45.044Z,17.50
2018-09-27T03:49:14.999Z,21.25
2018-09-27T03:51:45.373Z,18.95
2018-09-27T03:54:16.286Z,11.30
2018-09-27T03:56:51.540Z,16.85
2018-09-27T03:59:21.447Z,15.93
2018-09-27T04:01:52.016Z,20.80
2018-09-27T04:04:22.299Z,16.60
2018-09-27T04:06:53.557Z,18.55
2018-09-27T04:09:26.308Z,20.43
2018-09-27T04:11:57.764Z,16.80
2018-09-27T04:14:27.841Z,20.43
2018-09-27T04:16:57.739Z,18.17
2018-09-27T04:19:28.513Z,19.60
2018-09-27T04:22:01.678Z,21.42
2018-09-27T04:24:32.759Z,26.77
2018-09-27T04:27:02.693Z,18.02
2018-09-27T04:29:33.105Z,22.98
2018-09-27T04:32:05.165Z,22.25
2018-09-27T04:34:36.718Z,19.17
2018-09-27T04:37:07.606Z,18.60
2018-09-27T04:39:37.669Z,13.80
2018-09-27T04:42:08.359Z,21.62
2018-09-27T04:44:38.533Z,17.23
2018-09-27T04:47:08.551Z,22.65
2018-09-27T04:49:39.300Z,15.08
2018-09-27T04:52:10.964Z,18.25
2018-09-27T04:54:43.673Z,18.82
2018-09-27T04:57:16.578Z,18.42
2018-09-27T04:59:46.672Z,14.70
2018-09-27T05:02:16.632Z,8.83
2018-09-27T05:04:46.662Z,15.48
2018-09-27T05:07:17.248Z,15.63
2018-09-27T05:09:47.768Z,14.28
2018-09-27T05:12:17.581Z,6.28
2018-09-27T05:14:49.408Z,15.43
2018-09-27T05:17:19.559Z,19.42
2018-09-27T05:19:49.787Z,10.50
2018-09-27T05:22:21.894Z,14.85
2018-09-27T05:24:53.159Z,15.55
2018-09-27T05:27:23.271Z,17.23
2018-09-27T05:29:53.591Z,15.65
2018-09-27T05:32:25.132Z,18.02
2018-09-27T05:34:55.791Z,17.27
2018-09-27T05:37:26.771Z,17.25
2018-09-27T05:39:57.350Z,19.23
2018-09-27T05:42:28.461Z,15.20
2018-09-27T05:44:58.468Z,17.55
2018-09-27T05:47:28.884Z,16.57
2018-09-27T05:50:01.774Z,15.58
2018-09-27T05:52:34.720Z,12.70
2018-09-27T05:55:05.858Z,17.02
2018-09-27T05:57:35.881Z,17.10
2018-09-27T06:00:08.695Z,17.23
2018-09-27T06:02:38.637Z,13.93
2018-09-27T06:05:08.568Z,17.20
2018-09-27T06:07:39.458Z,14.03
2018-09-27T06:10:10.333Z,21.65
2018-09-27T06:12:43.114Z,18.23
2018-09-27T06:15:13.763Z,14.38
2018-09-27T06:17:44.027Z,10.10
2018-09-27T06:20:14.066Z,13.85
2018-09-27T06:22:45.338Z,14.43
2018-09-27T06:25:15.434Z,17.07
2018-09-27T06:27:45.811Z,13.38
2018-09-27T06:30:16.088Z,14.55
2018-09-27T06:32:47.215Z,15.03
2018-09-27T06:35:19.209Z,13.90
2018-09-27T06:37:49.858Z,18.45
2018-09-27T06:40:20.028Z,15.20
2018-09-27T06:42:50.761Z,13.95
2018-09-27T06:45:23.025Z,18.75
2018-09-27T06:47:53.592Z,16.55
2018-09-27T06:50:25.235Z,19.65
2018-09-27T06:52:55.922Z,23.57
2018-09-27T06:55:28.160Z,16.12
2018-09-27T06:57:58.953Z,15.00
2018-09-27T07:00:29.007Z,18.50
2018-09-27T07:02:59.200Z,23.42
2018-09-27T07:05:31.046Z,21.70
2018-09-27T07:08:01.923Z,28.73
2018-09-27T07:10:32.552Z,27.15
2018-09-27T07:13:03.462Z,25.60
2018-09-27T07:16:15.419Z,30.17
2018-09-27T07:18:46.485Z,27.02
2018-09-27T07:21:19.333Z,26.40
2018-09-27T07:23:49.667Z,19.37
2018-09-27T07:26:21.244Z,26.33
2018-09-27T07:28:51.381Z,24.15
2018-09-27T07:31:21.714Z,24.43
2018-09-27T07:33:54.280Z,29.72
2018-09-27T07:37:21.063Z,24.27
2018-09-27T07:39:50.983Z,23.32
2018-09-27T07:42:23.576Z,22.27
2018-09-27T07:44:54.753Z,22.85
2018-09-27T07:47:24.931Z,22.70
2018-09-27T07:49:55.109Z,26.33
2018-09-27T07:52:25.722Z,19.30
2018-09-27T07:54:56.256Z,14.93
2018-09-27T07:57:34.971Z,17.62
2018-09-27T08:06:30.481Z,16.02
2018-09-27T08:09:01.691Z,16.70
2018-09-27T08:11:32.303Z,12.53
2018-09-27T08:14:02.462Z,19.30
2018-09-27T08:16:33.181Z,11.03
2018-09-27T08:19:05.891Z,16.93
2018-09-27T08:24:30.645Z,16.27
2018-09-27T08:27:02.232Z,15.60
2018-09-27T08:29:32.550Z,17.92
2018-09-27T08:32:03.205Z,19.27
2018-09-27T08:34:34.008Z,19.15
2018-09-27T08:40:10.103Z,19.67
2018-09-27T08:42:44.373Z,16.48
2018-09-27T08:45:27.879Z,16.20
2018-09-27T08:47:58.724Z,9.35
2018-09-27T08:50:29.077Z,13.65
2018-09-27T08:52:59.759Z,12.75
2018-09-27T08:56:41.740Z,14.60
2018-09-27T08:59:11.936Z,13.88
2018-09-27T09:01:41.951Z,9.53
2018-09-27T09:06:46.577Z,11.85
2018-09-27T09:09:16.848Z,10.43
2018-09-27T09:11:49.028Z,11.05
2018-09-27T09:14:20.014Z,11.95
2018-09-27T09:16:51.475Z,13.62
2018-09-27T09:19:21.524Z,16.73
2018-09-27T09:21:51.515Z,11.65
2018-09-27T09:24:22.671Z,12.82
2018-09-27T09:26:53.539Z,9.53
2018-09-27T09:29:24.185Z,10.55
2018-09-27T09:31:54.727Z,11.80
2018-09-27T09:34:24.621Z,14.75
2018-09-27T09:36:54.545Z,13.43
2018-09-27T09:39:25.506Z,14.18
2018-09-27T09:41:55.452Z,15.28
2018-09-27T09:44:25.425Z,10.75
2018-09-27T09:46:55.290Z,12.47
2018-09-27T09:49:25.497Z,17.82
2018-09-27T09:51:56.105Z,11.05
2018-09-27T09:54:26.146Z,11.50
2018-09-27T09:56:56.417Z,14.65
2018-09-27T09:59:27.615Z,10.40
2018-09-27T10:01:58.477Z,14.58
2018-09-27T10:04:29.212Z,14.83
2018-09-27T10:06:59.203Z,19.20
2018-09-27T10:09:30.379Z,12.30
2018-09-27T10:12:00.427Z,11.50
2018-09-27T10:14:31.186Z,10.03
2018-09-27T10:17:02.817Z,14.13
2018-09-27T10:19:33.361Z,19.00
2018-09-27T10:22:05.090Z,20.10
2018-09-27T10:24:35.514Z,14.28
2018-09-27T10:27:05.650Z,21.90
2018-09-27T10:29:35.864Z,18.80
2018-09-27T10:32:06.539Z,12.80
2018-09-27T10:34:36.854Z,16.62
2018-09-27T10:37:06.997Z,14.98
2018-09-27T10:39:38.044Z,17.77
2018-09-27T10:42:08.090Z,15.30
2018-09-27T10:44:38.700Z,17.32
2018-09-27T10:47:09.443Z,12.70
2018-09-27T10:49:39.370Z,16.35
2018-09-27T10:52:09.704Z,13.10
2018-09-27T10:54:40.319Z,12.35
2018-09-27T10:57:10.392Z,15.63
2018-09-27T10:59:40.474Z,10.30
2018-09-27T11:02:10.557Z,15.70
2018-09-27T11:04:40.591Z,10.48
2018-09-27T11:07:10.900Z,18.62
2018-09-27T11:09:41.032Z,13.45
2018-09-27T11:12:14.872Z,13.55
2018-09-27T11:14:45.559Z,15.30
2018-09-27T11:17:16.117Z,17.65
2018-09-27T11:19:47.301Z,13.18
2018-09-27T11:22:18.504Z,14.03
2018-09-27T11:24:48.999Z,14.43
2018-09-27T11:27:19.440Z,15.78
2018-09-27T11:29:54.484Z,13.60
2018-09-27T11:32:30.153Z,20.08
2018-09-27T11:35:10.229Z,14.15
2018-09-27T11:37:40.609Z,14.65
2018-09-27T11:40:12.071Z,16.60
2018-09-27T11:42:42.173Z,13.10
2018-09-27T11:45:21.126Z,13.48
2018-09-27T11:47:54.436Z,12.28
2018-09-27T11:50:24.727Z,13.40
2018-09-27T11:52:58.746Z,12.63
2018-09-27T11:55:29.564Z,12.75
2018-09-27T11:58:00.727Z,11.40
2018-09-27T12:00:31.736Z,12.70
2018-09-27T12:03:05.980Z,18.27
2018-09-27T12:05:36.600Z,12.55
2018-09-27T12:08:07.560Z,11.48
2018-09-27T12:10:38.595Z,15.10
2018-09-27T12:13:09.318Z,13.80
2018-09-27T12:15:39.538Z,12.30
2018-09-27T12:18:10.889Z,9.25
2018-09-27T12:20:42.324Z,9.20
2018-09-27T12:23:13.171Z,9.93
2018-09-27T12:28:25.730Z,13.62
2018-09-27T12:30:56.064Z,13.08
2018-09-27T12:33:26.458Z,9.15
2018-09-27T12:35:58.106Z,9.75
2018-09-27T12:38:29.723Z,7.53
2018-09-27T12:40:59.906Z,12.45
2018-09-27T12:43:30.318Z,9.20
2018-09-27T12:46:02.711Z,13.95
2018-09-27T12:48:32.615Z,10.80
2018-09-27T12:51:02.490Z,11.45
2018-09-27T12:53:32.317Z,11.57
2018-09-27T12:56:03.355Z,12.05
2018-09-27T12:58:33.756Z,10.80
2018-09-27T13:01:05.795Z,13.48
2018-09-27T13:03:36.218Z,16.23
2018-09-27T13:06:06.835Z,13.62
2018-09-27T13:08:38.544Z,12.18
2018-09-27T13:11:08.789Z,13.20
2018-09-27T13:13:44.743Z,16.02
2018-09-27T13:16:40.563Z,11.22
2018-09-27T13:19:10.931Z,15.35
2018-09-27T13:21:43.839Z,16.50
2018-09-27T13:24:15.122Z,14.83
2018-09-27T13:26:48.713Z,15.23
2018-09-27T13:29:21.883Z,15.70
2018-09-27T13:31:52.440Z,18.80
2018-09-27T13:34:22.773Z,12.98
2018-09-27T13:36:53.639Z,14.53
2018-09-27T13:39:26.083Z,11.95
2018-09-27T13:42:00.042Z,15.65
2018-09-27T13:44:30.318Z,17.32
2018-09-27T13:47:04.295Z,14.87
2018-09-27T13:49:38.085Z,18.60
2018-09-27T13:52:14.185Z,19.52
2018-09-27T13:57:20.595Z,15.78
2018-09-27T13:59:53.767Z,13.05
2018-09-27T14:02:25.116Z,12.75
2018-09-27T14:04:56.944Z,14.53
2018-09-27T14:07:27.338Z,12.55
2018-09-27T14:09:57.991Z,13.65
2018-09-27T14:12:29.554Z,13.15
2018-09-27T14:15:02.339Z,15.48
2018-09-27T14:17:34.016Z,13.45
2018-09-27T14:20:07.645Z,12.93
2018-09-27T14:22:39.220Z,11.10
2018-09-27T14:25:12.133Z,10.28
2018-09-27T14:27:44.443Z,13.93
2018-09-27T14:30:27.569Z,13.03
2018-09-27T14:32:58.875Z,13.53
2018-09-27T14:35:29.885Z,11.22
2018-09-27T14:38:00.061Z,15.15
2018-09-27T14:40:30.518Z,13.32
2018-09-27T14:43:01.019Z,10.75
2018-09-27T14:45:31.347Z,13.32
2018-09-27T14:48:01.694Z,10.82
2018-09-27T14:50:35.372Z,14.65
2018-09-27T14:53:08.380Z,9.45
2018-09-27T14:55:44.530Z,13.78
2018-09-27T14:58:15.459Z,14.07
2018-09-27T15:00:45.822Z,11.90
2018-09-27T15:03:15.837Z,12.20
2018-09-27T15:05:46.128Z,14.25
2018-09-27T15:08:16.286Z,12.43
2018-09-27T15:10:46.516Z,13.58
2018-09-27T15:13:16.976Z,12.60
2018-09-27T15:15:49.198Z,16.70
2018-09-27T15:18:21.853Z,11.85
2018-09-27T15:20:52.205Z,12.82
2018-09-27T15:23:23.244Z,16.67
2018-09-27T15:25:55.096Z,16.55
2018-09-27T15:28:25.640Z,17.52
2018-09-27T15:30:56.170Z,19.10
2018-09-27T15:33:26.077Z,21.40
2018-09-27T15:35:55.985Z,18.40
2018-09-27T15:38:26.084Z,19.15
2018-09-27T15:40:57.868Z,16.97
2018-09-27T15:43:28.064Z,20.70
2018-09-27T15:45:58.645Z,24.72
2018-09-27T15:48:30.346Z,19.35
2018-09-27T15:51:00.501Z,25.62
2018-09-27T15:53:30.404Z,18.55
2018-09-27T15:56:00.435Z,20.30
2018-09-27T15:58:30.647Z,20.17
2018-09-27T16:01:01.070Z,17.87
2018-09-27T16:03:32.098Z,21.17
2018-09-27T16:06:02.119Z,19.57
2018-09-27T16:08:32.657Z,20.62
2018-09-27T16:11:03.288Z,24.65
2018-09-27T16:13:33.423Z,19.65
2018-09-27T16:16:08.435Z,24.98
2018-09-27T16:18:38.851Z,25.82
2018-09-27T16:21:10.378Z,24.18
2018-09-27T16:23:43.039Z,17.85
2018-09-27T16:26:15.278Z,14.75
2018-09-27T16:28:46.509Z,16.23
2018-09-27T16:31:17.543Z,22.48
2018-09-27T16:33:55.412Z,20.72
2018-09-27T16:36:29.460Z,20.02
2018-09-27T16:39:02.229Z,17.92
2018-09-27T16:41:33.458Z,18.62
2018-09-27T16:44:07.078Z,17.45
2018-09-27T16:46:37.876Z,17.07
2018-09-27T16:49:10.965Z,15.20
2018-09-27T16:51:44.974Z,16.65
2018-09-27T16:54:16.478Z,14.87
2018-09-27T16:56:47.105Z,15.08
2018-09-27T16:59:18.657Z,15.10
2018-09-27T17:01:50.144Z,15.65
2018-09-27T17:04:24.060Z,13.13
2018-09-27T17:06:54.753Z,18.70
2018-09-27T17:09:39.040Z,15.88
2018-09-27T17:12:09.672Z,14.28
2018-09-27T17:14:39.798Z,12.73
2018-09-27T17:17:13.684Z,13.10
2018-09-27T17:19:47.162Z,12.47
2018-09-27T17:22:20.183Z,11.25
2018-09-27T17:24:53.592Z,19.90
2018-09-27T17:27:24.827Z,12.05
2018-09-27T17:29:55.691Z,11.50
2018-09-27T17:32:25.851Z,7.87
2018-09-27T17:34:55.960Z,9.25
2018-09-27T17:37:28.798Z,9.08
2018-09-27T17:39:59.527Z,7.87
2018-09-27T17:42:30.125Z,8.75
2018-09-27T17:45:00.590Z,6.28
2018-09-27T17:47:30.663Z,9.35
2018-09-27T17:50:03.594Z,7.05
2018-09-27T17:52:34.008Z,7.42
2018-09-27T17:55:06.552Z,6.92
2018-09-27T17:57:36.571Z,6.50
2018-09-27T18:00:06.710Z,7.00
2018-09-27T18:02:36.803Z,9.18
2018-09-27T18:05:18.814Z,6.53
2018-09-27T18:07:36.931Z,5.97
2018-09-27T18:10:06.854Z,10.45
2018-09-27T18:12:37.035Z,6.17
2018-09-27T18:15:07.408Z,9.90
2018-09-27T18:17:37.428Z,5.17
2018-09-27T18:20:10.406Z,7.65
2018-09-27T18:22:41.469Z,7.78
2018-09-27T18:25:11.536Z,4.37
2018-09-27T18:27:42.878Z,6.35
2018-09-27T18:30:16.089Z,5.08
2018-09-27T18:32:54.020Z,6.45
2018-09-27T18:35:29.981Z,3.65
2018-09-27T18:38:15.364Z,4.70
2018-09-27T18:40:46.074Z,3.70
2018-09-27T18:43:17.980Z,5.65
2018-09-27T18:46:07.812Z,5.17
2018-09-27T18:49:02.631Z,3.35
2018-09-27T18:51:33.155Z,3.30
2018-09-27T18:54:07.007Z,2.00
2018-09-27T18:56:39.078Z,5.45
2018-09-27T18:59:12.961Z,2.42
2018-09-27T19:01:44.305Z,3.00
2018-09-27T19:04:15.782Z,3.22
2018-09-27T19:06:48.607Z,3.00
2018-09-27T19:09:19.693Z,1.92
2018-09-27T19:11:51.290Z,3.15
2018-09-27T19:14:22.877Z,2.20
2018-09-27T19:16:54.815Z,2.30
2018-09-27T19:19:26.546Z,2.33
2018-09-27T19:21:56.646Z,2.90
2018-09-27T19:24:28.015Z,1.30
2018-09-27T19:26:59.341Z,1.60
2018-09-27T19:29:30.769Z,1.85
2018-09-27T19:32:03.339Z,2.45
2018-09-27T19:34:33.732Z,2.70
2018-09-27T19:37:05.361Z,2.20
2018-09-27T19:39:45.891Z,2.30
2018-09-27T19:42:17.258Z,3.55
2018-09-27T19:44:47.457Z,3.33
2018-09-27T19:47:17.880Z,2.62
2018-09-27T19:49:49.825Z,4.00
2018-09-27T19:52:20.703Z,5.20
2018-09-27T19:54:50.865Z,3.75
2018-09-27T19:57:21.711Z,4.60
2018-09-27T19:59:52.166Z,5.87
2018-09-27T20:02:22.201Z,6.25
2018-09-27T20:04:52.438Z,8.40
2018-09-27T20:07:22.744Z,10.03
2018-09-27T20:09:53.758Z,12.18
2018-09-27T20:12:24.423Z,12.35
2018-09-27T20:14:54.690Z,15.20
2018-09-27T20:17:24.654Z,14.03
2018-09-27T20:19:56.017Z,16.37
2018-09-27T20:22:27.386Z,20.48
2018-09-27T20:24:57.713Z,22.07
2018-09-27T20:27:28.813Z,17.07
2018-09-27T20:29:59.447Z,26.42
2018-09-27T20:32:29.868Z,25.05
2018-09-27T20:35:00.177Z,22.13
2018-09-27T20:37:31.246Z,25.88
2018-09-27T20:40:02.183Z,25.08
2018-09-27T20:42:33.466Z,26.52
2018-09-27T20:45:03.233Z,29.10
2018-09-27T20:47:34.110Z,23.00
2018-09-27T20:50:05.315Z,25.23
2018-09-27T20:52:36.163Z,30.68
2018-09-27T20:55:07.066Z,27.37
2018-09-27T20:57:37.310Z,28.55
2018-09-27T21:00:08.354Z,27.93
2018-09-27T21:02:40.131Z,24.77
2018-09-27T21:05:10.712Z,30.75
2018-09-27T21:07:41.709Z,26.75
2018-09-27T21:10:11.971Z,24.95
2018-09-27T21:12:41.788Z,28.17
2018-09-27T21:15:13.818Z,25.15
2018-09-27T21:17:45.606Z,17.73
2018-09-27T21:20:15.718Z,28.23
2018-09-27T21:22:46.737Z,23.55
2018-09-27T21:25:19.157Z,20.85
2018-09-27T21:27:50.419Z,14.35
2018-09-27T21:30:24.123Z,15.23
2018-09-27T21:32:54.795Z,15.65
2018-09-27T21:35:28.027Z,8.98
2018-09-27T21:37:58.350Z,12.18
2018-09-27T21:40:31.385Z,11.68
2018-09-27T21:43:01.686Z,10.85
2018-09-27T21:45:35.774Z,12.63
2018-09-27T21:48:08.893Z,9.45
2018-09-27T21:50:39.599Z,9.33
2018-09-27T21:53:13.090Z,10.43
2018-09-27T21:55:46.419Z,10.50
2018-09-27T21:58:17.291Z,8.78
2018-09-27T22:00:52.362Z,9.83
2018-09-27T22:03:26.840Z,8.60
2018-09-27T22:05:57.656Z,11.35
2018-09-27T22:08:28.759Z,13.32
2018-09-27T22:11:02.396Z,10.03
2018-09-27T22:13:34.258Z,12.18
2018-09-27T22:16:05.260Z,9.13
2018-09-27T22:18:35.930Z,9.68
2018-09-27T22:21:07.854Z,14.90
2018-09-27T22:23:39.732Z,7.45
2018-09-27T22:26:14.746Z,14.15
2018-09-27T22:28:45.515Z,11.10
2018-09-27T22:31:17.966Z,14.58
2018-09-27T22:33:48.641Z,10.03
2018-09-27T22:36:18.598Z,17.87
2018-09-27T22:38:48.636Z,10.32
2018-09-27T22:41:18.676Z,11.83
2018-09-27T22:43:49.684Z,10.28
2018-09-27T22:46:21.731Z,7.97
2018-09-27T22:49:38.660Z,8.40
2018-09-27T22:52:09.129Z,7.70
2018-09-27T22:54:39.916Z,9.20
2018-09-27T22:57:10.346Z,7.75
2018-09-27T22:59:42.328Z,9.98
2018-09-27T23:02:13.988Z,7.72
2018-09-27T23:04:43.868Z,10.28
2018-09-27T23:07:14.127Z,8.78
2018-09-27T23:09:46.369Z,6.53
2018-09-27T23:12:16.284Z,6.75
2018-09-27T23:14:47.451Z,4.53
2018-09-27T23:17:17.695Z,4.35
2018-09-27T23:19:49.587Z,2.85
2018-09-27T23:22:21.686Z,5.08
2018-09-27T23:24:51.916Z,2.00
2018-09-27T23:27:22.102Z,4.33
2018-09-27T23:29:53.002Z,6.03
2018-09-27T23:32:25.309Z,2.90
2018-09-27T23:34:55.221Z,3.52
2018-09-27T23:37:26.802Z,4.58
2018-09-27T23:39:56.701Z,0.75
2018-09-27T23:42:27.092Z,1.42
2018-09-27T23:44:58.148Z,3.30
2018-09-27T23:47:28.057Z,4.10
2018-09-27T23:49:58.011Z,5.37
2018-09-27T23:52:29.200Z,3.75
2018-09-27T23:55:00.151Z,2.45
2018-09-27T23:57:30.141Z,7.55
